首页
METAR-TAF:

METAR-TAF

机场 :

瓦加杜古國際機場

瓦加杜古, 布吉納法索

纬度: 12-21N, 经度: 001-31W, 海拔: 316米

当前天气观测

该预报发布于4小时和48分钟前的08:00 UTC
风速8节,风向西转西南
温度 28°C
湿度 70%
气压 1013 hPa
能見度: 8000

METAR: DFFD 180800Z 24008KT 8000 NSC 28/22 Q1013 NOSIG

时间: 12:48 (12:48 UTC)

预报

该预报发布于7小时和48分钟前的05:00 UTC
预报有效从18日的 06点(UTC)到 19日的 12点(UTC)
风速8节,风向
能见度10公里或以上
1500米以下无云,无积雨云
短暂存在
从 18日的 06点(UTC)到 18日的 10点(UTC)
能見度: 4000
短暂存在
从 19日的 06点(UTC)到 19日的 10点(UTC)
能見度: 2500

TAF: DFFD 180500Z 1806/1912 18008KT CAVOK TEMPO 1806/1810 4000 HZ TEMPO 1906/1910 2500 HZ

超过4000个机场的气象观测和天气预报(METAR&TAF报告)。

可查询的气象台以黄色和红色小点在地图上表示。

将鼠标移到小点上方,可查看气象台名称。

然后点击查看天气观测和预报。

如需切换地图:点击带黑十字的绿色按钮放大地图;点击带横线的绿色按钮缩小地图;或者点击绿色箭头查看邻近地区的地图。


METAR-TAF: